sensor_id;sensor_type;location;lat;lon;timestamp;temperature;humidity
45066;DHT22;30830;53.704;10.004;2023-06-24T00:02:01;15.80;99.90
45066;DHT22;30830;53.704;10.004;2023-06-24T00:04:26;15.70;99.90
45066;DHT22;30830;53.704;10.004;2023-06-24T00:06:52;15.70;99.90
45066;DHT22;30830;53.704;10.004;2023-06-24T00:09:18;15.70;99.90
45066;DHT22;30830;53.704;10.004;2023-06-24T00:11:43;15.60;99.90
45066;DHT22;30830;53.704;10.004;2023-06-24T00:14:09;15.60;99.90
45066;DHT22;30830;53.704;10.004;2023-06-24T00:16:36;15.60;99.90
45066;DHT22;30830;53.704;10.004;2023-06-24T00:19:02;15.50;99.90
45066;DHT22;30830;53.704;10.004;2023-06-24T00:21:28;15.50;99.90
45066;DHT22;30830;53.704;10.004;2023-06-24T00:23:57;15.40;99.90
45066;DHT22;30830;53.704;10.004;2023-06-24T00:26:24;15.30;99.90
45066;DHT22;30830;53.704;10.004;2023-06-24T00:28:49;15.30;99.90
45066;DHT22;30830;53.704;10.004;2023-06-24T00:31:15;15.30;99.90
45066;DHT22;30830;53.704;10.004;2023-06-24T00:33:40;15.30;99.90
45066;DHT22;30830;53.704;10.004;2023-06-24T00:36:06;15.30;99.90
45066;DHT22;30830;53.704;10.004;2023-06-24T00:38:39;15.20;99.90
45066;DHT22;30830;53.704;10.004;2023-06-24T00:41:07;15.20;99.90
45066;DHT22;30830;53.704;10.004;2023-06-24T00:43:32;15.20;99.90
45066;DHT22;30830;53.704;10.004;2023-06-24T00:45:58;15.10;99.90
45066;DHT22;30830;53.704;10.004;2023-06-24T00:48:24;15.10;99.90
45066;DHT22;30830;53.704;10.004;2023-06-24T00:50:50;15.00;99.90
45066;DHT22;30830;53.704;10.004;2023-06-24T00:53:16;15.00;99.90
45066;DHT22;30830;53.704;10.004;2023-06-24T00:55:43;14.90;99.90
45066;DHT22;30830;53.704;10.004;2023-06-24T00:58:12;14.90;99.90
45066;DHT22;30830;53.704;10.004;2023-06-24T01:00:45;14.80;99.90
45066;DHT22;30830;53.704;10.004;2023-06-24T01:03:11;14.80;99.90
45066;DHT22;30830;53.704;10.004;2023-06-24T01:05:42;14.80;99.90
45066;DHT22;30830;53.704;10.004;2023-06-24T01:08:08;14.70;99.90
45066;DHT22;30830;53.704;10.004;2023-06-24T01:10:35;14.70;99.90
45066;DHT22;30830;53.704;10.004;2023-06-24T01:13:00;14.70;99.90
45066;DHT22;30830;53.704;10.004;2023-06-24T01:15:26;14.70;99.90
45066;DHT22;30830;53.704;10.004;2023-06-24T01:20:36;14.70;99.90
45066;DHT22;30830;53.704;10.004;2023-06-24T01:23:29;14.70;99.90
45066;DHT22;30830;53.704;10.004;2023-06-24T01:28:44;14.60;99.90
45066;DHT22;30830;53.704;10.004;2023-06-24T01:31:39;14.50;99.90
45066;DHT22;30830;53.704;10.004;2023-06-24T01:37:19;14.50;99.90
45066;DHT22;30830;53.704;10.004;2023-06-24T01:39:49;14.50;99.90
45066;DHT22;30830;53.704;10.004;2023-06-24T01:42:17;14.50;99.90
45066;DHT22;30830;53.704;10.004;2023-06-24T01:44:45;14.40;99.90
45066;DHT22;30830;53.704;10.004;2023-06-24T01:47:15;14.40;99.90
45066;DHT22;30830;53.704;10.004;2023-06-24T01:49:44;14.30;99.90
45066;DHT22;30830;53.704;10.004;2023-06-24T01:52:10;14.30;99.90
45066;DHT22;30830;53.704;10.004;2023-06-24T01:54:39;14.30;99.90
45066;DHT22;30830;53.704;10.004;2023-06-24T01:57:08;14.30;99.90
45066;DHT22;30830;53.704;10.004;2023-06-24T01:59:36;14.20;99.90
45066;DHT22;30830;53.704;10.004;2023-06-24T02:02:04;14.20;99.90
45066;DHT22;30830;53.704;10.004;2023-06-24T02:04:31;14.20;99.90
45066;DHT22;30830;53.704;10.004;2023-06-24T02:07:00;14.20;99.90
45066;DHT22;30830;53.704;10.004;2023-06-24T02:09:29;14.10;99.90
45066;DHT22;30830;53.704;10.004;2023-06-24T02:11:58;14.10;99.90
45066;DHT22;30830;53.704;10.004;2023-06-24T02:14:26;14.10;99.90
45066;DHT22;30830;53.704;10.004;2023-06-24T02:16:53;14.00;99.90
45066;DHT22;30830;53.704;10.004;2023-06-24T02:19:22;14.00;99.90
45066;DHT22;30830;53.704;10.004;2023-06-24T02:21:49;14.00;99.90
45066;DHT22;30830;53.704;10.004;2023-06-24T02:24:18;13.90;99.90
45066;DHT22;30830;53.704;10.004;2023-06-24T02:26:43;13.90;99.90
45066;DHT22;30830;53.704;10.004;2023-06-24T02:29:10;13.90;99.90
45066;DHT22;30830;53.704;10.004;2023-06-24T02:31:38;13.90;99.90
45066;DHT22;30830;53.704;10.004;2023-06-24T02:34:03;13.90;99.90
45066;DHT22;30830;53.704;10.004;2023-06-24T02:36:29;13.80;99.90
45066;DHT22;30830;53.704;10.004;2023-06-24T02:38:54;13.80;99.90
45066;DHT22;30830;53.704;10.004;2023-06-24T02:41:20;13.80;99.90
45066;DHT22;30830;53.704;10.004;2023-06-24T02:43:45;13.80;99.90
45066;DHT22;30830;53.704;10.004;2023-06-24T02:46:11;13.70;99.90
45066;DHT22;30830;53.704;10.004;2023-06-24T02:48:38;13.70;99.90
45066;DHT22;30830;53.704;10.004;2023-06-24T02:51:05;13.70;99.90
45066;DHT22;30830;53.704;10.004;2023-06-24T02:53:32;13.70;99.90
45066;DHT22;30830;53.704;10.004;2023-06-24T02:55:58;13.70;99.90
45066;DHT22;30830;53.704;10.004;2023-06-24T02:58:24;13.60;99.90
45066;DHT22;30830;53.704;10.004;2023-06-24T03:00:58;13.60;99.90
45066;DHT22;30830;53.704;10.004;2023-06-24T03:03:24;13.60;99.90
45066;DHT22;30830;53.704;10.004;2023-06-24T03:05:51;13.60;99.90
45066;DHT22;30830;53.704;10.004;2023-06-24T03:08:19;13.60;99.90
45066;DHT22;30830;53.704;10.004;2023-06-24T03:10:44;13.60;99.90
45066;DHT22;30830;53.704;10.004;2023-06-24T03:13:10;13.60;99.90
45066;DHT22;30830;53.704;10.004;2023-06-24T03:15:35;13.60;99.90
45066;DHT22;30830;53.704;10.004;2023-06-24T03:18:01;13.60;99.90
45066;DHT22;30830;53.704;10.004;2023-06-24T03:20:27;13.50;99.90
45066;DHT22;30830;53.704;10.004;2023-06-24T03:22:52;13.50;99.90
45066;DHT22;30830;53.704;10.004;2023-06-24T03:25:18;13.50;99.90
45066;DHT22;30830;53.704;10.004;2023-06-24T03:27:46;13.50;99.90
45066;DHT22;30830;53.704;10.004;2023-06-24T03:30:12;13.50;99.90
45066;DHT22;30830;53.704;10.004;2023-06-24T03:32:40;13.50;99.90
45066;DHT22;30830;53.704;10.004;2023-06-24T03:35:05;13.50;99.90
45066;DHT22;30830;53.704;10.004;2023-06-24T03:37:32;13.50;99.90
45066;DHT22;30830;53.704;10.004;2023-06-24T03:39:58;13.50;99.90
45066;DHT22;30830;53.704;10.004;2023-06-24T03:42:32;13.50;99.90
45066;DHT22;30830;53.704;10.004;2023-06-24T03:44:58;13.50;99.90
45066;DHT22;30830;53.704;10.004;2023-06-24T03:47:23;13.60;99.90
45066;DHT22;30830;53.704;10.004;2023-06-24T03:49:49;13.50;99.90
45066;DHT22;30830;53.704;10.004;2023-06-24T03:52:14;13.60;99.90
45066;DHT22;30830;53.704;10.004;2023-06-24T03:54:40;13.60;99.90
45066;DHT22;30830;53.704;10.004;2023-06-24T03:57:06;13.60;99.90
45066;DHT22;30830;53.704;10.004;2023-06-24T03:59:32;13.60;99.90
45066;DHT22;30830;53.704;10.004;2023-06-24T04:01:57;13.60;99.90
45066;DHT22;30830;53.704;10.004;2023-06-24T04:04:23;13.70;99.90
45066;DHT22;30830;53.704;10.004;2023-06-24T04:06:48;13.70;99.90
45066;DHT22;30830;53.704;10.004;2023-06-24T04:09:14;13.70;99.90
45066;DHT22;30830;53.704;10.004;2023-06-24T04:11:39;13.80;99.90
45066;DHT22;30830;53.704;10.004;2023-06-24T04:14:05;13.80;99.90
45066;DHT22;30830;53.704;10.004;2023-06-24T04:16:32;13.80;99.90
45066;DHT22;30830;53.704;10.004;2023-06-24T04:18:58;13.80;99.90
45066;DHT22;30830;53.704;10.004;2023-06-24T04:21:23;13.80;99.90
45066;DHT22;30830;53.704;10.004;2023-06-24T04:23:49;13.90;99.90
45066;DHT22;30830;53.704;10.004;2023-06-24T04:26:14;13.90;99.90
45066;DHT22;30830;53.704;10.004;2023-06-24T04:28:40;13.90;99.90
45066;DHT22;30830;53.704;10.004;2023-06-24T04:31:05;14.00;99.90
45066;DHT22;30830;53.704;10.004;2023-06-24T04:33:31;14.00;99.90
45066;DHT22;30830;53.704;10.004;2023-06-24T04:35:57;14.00;99.90
45066;DHT22;30830;53.704;10.004;2023-06-24T04:38:23;14.10;99.90
45066;DHT22;30830;53.704;10.004;2023-06-24T04:40:49;14.10;99.90
45066;DHT22;30830;53.704;10.004;2023-06-24T04:43:15;14.10;99.90
45066;DHT22;30830;53.704;10.004;2023-06-24T04:45:43;14.20;99.90
45066;DHT22;30830;53.704;10.004;2023-06-24T04:48:09;14.20;99.90
45066;DHT22;30830;53.704;10.004;2023-06-24T04:50:34;14.30;99.90
45066;DHT22;30830;53.704;10.004;2023-06-24T04:53:00;14.30;99.90
45066;DHT22;30830;53.704;10.004;2023-06-24T04:55:27;14.30;99.90
45066;DHT22;30830;53.704;10.004;2023-06-24T04:57:55;14.40;99.90
45066;DHT22;30830;53.704;10.004;2023-06-24T05:00:20;14.50;99.90
45066;DHT22;30830;53.704;10.004;2023-06-24T05:02:48;14.50;99.90
45066;DHT22;30830;53.704;10.004;2023-06-24T05:05:14;14.50;99.90
45066;DHT22;30830;53.704;10.004;2023-06-24T05:07:39;14.60;99.90
45066;DHT22;30830;53.704;10.004;2023-06-24T05:10:05;14.70;99.90
45066;DHT22;30830;53.704;10.004;2023-06-24T05:12:31;14.70;99.90
45066;DHT22;30830;53.704;10.004;2023-06-24T05:14:56;14.80;99.90
45066;DHT22;30830;53.704;10.004;2023-06-24T05:17:22;14.90;99.90
45066;DHT22;30830;53.704;10.004;2023-06-24T05:19:47;14.90;99.90
45066;DHT22;30830;53.704;10.004;2023-06-24T05:22:13;15.00;99.90
45066;DHT22;30830;53.704;10.004;2023-06-24T05:24:39;15.00;99.90
45066;DHT22;30830;53.704;10.004;2023-06-24T05:27:06;15.10;99.90
45066;DHT22;30830;53.704;10.004;2023-06-24T05:29:33;15.10;99.90
45066;DHT22;30830;53.704;10.004;2023-06-24T05:31:59;15.20;99.90
45066;DHT22;30830;53.704;10.004;2023-06-24T05:34:25;15.30;99.90
45066;DHT22;30830;53.704;10.004;2023-06-24T05:36:51;15.30;99.90
45066;DHT22;30830;53.704;10.004;2023-06-24T05:39:17;15.40;99.90
45066;DHT22;30830;53.704;10.004;2023-06-24T05:41:42;15.60;99.90
45066;DHT22;30830;53.704;10.004;2023-06-24T05:44:09;15.60;99.90
45066;DHT22;30830;53.704;10.004;2023-06-24T05:46:37;15.70;99.90
45066;DHT22;30830;53.704;10.004;2023-06-24T05:49:03;15.90;99.90
45066;DHT22;30830;53.704;10.004;2023-06-24T05:51:28;16.10;99.90
45066;DHT22;30830;53.704;10.004;2023-06-24T05:53:54;16.20;99.90
45066;DHT22;30830;53.704;10.004;2023-06-24T05:56:21;16.30;99.90
45066;DHT22;30830;53.704;10.004;2023-06-24T05:58:47;16.50;99.90
45066;DHT22;30830;53.704;10.004;2023-06-24T06:01:13;16.70;99.90
45066;DHT22;30830;53.704;10.004;2023-06-24T06:03:39;16.90;99.90
45066;DHT22;30830;53.704;10.004;2023-06-24T06:06:04;17.00;99.90
45066;DHT22;30830;53.704;10.004;2023-06-24T06:08:30;17.20;99.90
45066;DHT22;30830;53.704;10.004;2023-06-24T06:10:56;17.40;99.90
45066;DHT22;30830;53.704;10.004;2023-06-24T06:13:22;17.50;99.90
45066;DHT22;30830;53.704;10.004;2023-06-24T06:15:47;17.60;99.90
45066;DHT22;30830;53.704;10.004;2023-06-24T06:18:13;17.70;99.90
45066;DHT22;30830;53.704;10.004;2023-06-24T06:20:39;17.80;99.90
45066;DHT22;30830;53.704;10.004;2023-06-24T06:23:04;17.90;99.90
45066;DHT22;30830;53.704;10.004;2023-06-24T06:25:30;18.00;99.90
45066;DHT22;30830;53.704;10.004;2023-06-24T06:27:55;18.10;99.90
45066;DHT22;30830;53.704;10.004;2023-06-24T06:30:21;18.10;99.90
45066;DHT22;30830;53.704;10.004;2023-06-24T06:32:46;18.10;99.90
45066;DHT22;30830;53.704;10.004;2023-06-24T06:35:12;18.20;99.90
45066;DHT22;30830;53.704;10.004;2023-06-24T06:37:37;18.10;99.90
45066;DHT22;30830;53.704;10.004;2023-06-24T06:40:03;18.10;99.90
45066;DHT22;30830;53.704;10.004;2023-06-24T06:42:29;18.20;99.90
45066;DHT22;30830;53.704;10.004;2023-06-24T06:44:55;18.30;99.90
45066;DHT22;30830;53.704;10.004;2023-06-24T06:47:21;18.40;99.90
45066;DHT22;30830;53.704;10.004;2023-06-24T06:49:46;18.40;99.90
45066;DHT22;30830;53.704;10.004;2023-06-24T06:52:12;18.50;99.90
45066;DHT22;30830;53.704;10.004;2023-06-24T06:54:37;18.60;99.90
45066;DHT22;30830;53.704;10.004;2023-06-24T06:57:04;18.70;99.90
45066;DHT22;30830;53.704;10.004;2023-06-24T06:59:30;18.90;99.90
45066;DHT22;30830;53.704;10.004;2023-06-24T07:01:56;19.20;99.90
45066;DHT22;30830;53.704;10.004;2023-06-24T07:04:22;19.30;99.90
45066;DHT22;30830;53.704;10.004;2023-06-24T07:06:47;19.30;99.90
45066;DHT22;30830;53.704;10.004;2023-06-24T07:09:13;19.40;99.90
45066;DHT22;30830;53.704;10.004;2023-06-24T07:11:38;19.40;99.90
45066;DHT22;30830;53.704;10.004;2023-06-24T07:14:04;19.60;99.90
45066;DHT22;30830;53.704;10.004;2023-06-24T07:16:29;19.70;99.90
45066;DHT22;30830;53.704;10.004;2023-06-24T07:18:55;19.80;99.90
45066;DHT22;30830;53.704;10.004;2023-06-24T07:21:20;19.90;99.90
45066;DHT22;30830;53.704;10.004;2023-06-24T07:23:46;20.10;99.90
45066;DHT22;30830;53.704;10.004;2023-06-24T07:26:12;20.10;99.90
45066;DHT22;30830;53.704;10.004;2023-06-24T07:28:37;20.20;99.90
45066;DHT22;30830;53.704;10.004;2023-06-24T07:31:03;20.20;99.90
45066;DHT22;30830;53.704;10.004;2023-06-24T07:33:28;20.20;99.90
45066;DHT22;30830;53.704;10.004;2023-06-24T07:35:56;20.30;99.90
45066;DHT22;30830;53.704;10.004;2023-06-24T07:38:21;20.40;99.90
45066;DHT22;30830;53.704;10.004;2023-06-24T07:40:47;20.40;99.90
45066;DHT22;30830;53.704;10.004;2023-06-24T07:43:13;20.40;99.90
45066;DHT22;30830;53.704;10.004;2023-06-24T07:45:38;20.50;99.90
45066;DHT22;30830;53.704;10.004;2023-06-24T07:48:04;20.60;99.90
45066;DHT22;30830;53.704;10.004;2023-06-24T07:50:30;20.80;99.90
45066;DHT22;30830;53.704;10.004;2023-06-24T07:52:57;20.80;99.90
45066;DHT22;30830;53.704;10.004;2023-06-24T07:55:22;20.90;99.90
45066;DHT22;30830;53.704;10.004;2023-06-24T07:57:48;21.00;99.90
45066;DHT22;30830;53.704;10.004;2023-06-24T08:00:14;21.10;99.90
45066;DHT22;30830;53.704;10.004;2023-06-24T08:02:41;21.20;99.90
45066;DHT22;30830;53.704;10.004;2023-06-24T08:05:07;21.10;99.90
45066;DHT22;30830;53.704;10.004;2023-06-24T08:07:33;21.30;99.90
45066;DHT22;30830;53.704;10.004;2023-06-24T08:09:58;21.40;99.90
45066;DHT22;30830;53.704;10.004;2023-06-24T08:12:24;21.60;99.90
45066;DHT22;30830;53.704;10.004;2023-06-24T08:14:49;21.70;99.90
45066;DHT22;30830;53.704;10.004;2023-06-24T08:17:15;22.00;99.90
45066;DHT22;30830;53.704;10.004;2023-06-24T08:19:40;22.20;99.90
45066;DHT22;30830;53.704;10.004;2023-06-24T08:22:06;22.50;99.90
45066;DHT22;30830;53.704;10.004;2023-06-24T08:24:32;22.60;99.90
45066;DHT22;30830;53.704;10.004;2023-06-24T08:26:57;22.70;99.90
45066;DHT22;30830;53.704;10.004;2023-06-24T08:29:23;22.60;99.90
45066;DHT22;30830;53.704;10.004;2023-06-24T08:31:48;22.70;99.90
45066;DHT22;30830;53.704;10.004;2023-06-24T08:34:14;22.80;99.90
45066;DHT22;30830;53.704;10.004;2023-06-24T08:36:39;22.90;99.90
45066;DHT22;30830;53.704;10.004;2023-06-24T08:39:05;23.10;99.90
45066;DHT22;30830;53.704;10.004;2023-06-24T08:41:30;23.10;99.90
45066;DHT22;30830;53.704;10.004;2023-06-24T08:43:56;23.20;99.90
45066;DHT22;30830;53.704;10.004;2023-06-24T08:46:25;23.30;99.90
45066;DHT22;30830;53.704;10.004;2023-06-24T08:48:59;23.30;99.90
45066;DHT22;30830;53.704;10.004;2023-06-24T08:51:29;23.20;99.90
45066;DHT22;30830;53.704;10.004;2023-06-24T08:53:55;23.30;99.90
45066;DHT22;30830;53.704;10.004;2023-06-24T08:56:21;23.30;99.90
45066;DHT22;30830;53.704;10.004;2023-06-24T08:58:47;23.50;99.90
45066;DHT22;30830;53.704;10.004;2023-06-24T09:01:12;23.60;99.90
45066;DHT22;30830;53.704;10.004;2023-06-24T09:03:38;23.70;99.90
45066;DHT22;30830;53.704;10.004;2023-06-24T09:06:03;23.80;99.90
45066;DHT22;30830;53.704;10.004;2023-06-24T09:08:29;23.90;99.90
45066;DHT22;30830;53.704;10.004;2023-06-24T09:10:55;24.00;99.90
45066;DHT22;30830;53.704;10.004;2023-06-24T09:13:36;24.00;99.90
45066;DHT22;30830;53.704;10.004;2023-06-24T09:16:14;24.00;99.90
45066;DHT22;30830;53.704;10.004;2023-06-24T09:18:41;23.80;99.70
45066;DHT22;30830;53.704;10.004;2023-06-24T09:21:07;23.50;99.90
45066;DHT22;30830;53.704;10.004;2023-06-24T09:23:37;23.40;99.90
45066;DHT22;30830;53.704;10.004;2023-06-24T09:26:02;23.50;99.90
45066;DHT22;30830;53.704;10.004;2023-06-24T09:28:28;23.60;99.90
45066;DHT22;30830;53.704;10.004;2023-06-24T09:31:09;23.70;99.90
45066;DHT22;30830;53.704;10.004;2023-06-24T09:33:35;23.80;99.90
45066;DHT22;30830;53.704;10.004;2023-06-24T09:36:04;23.80;99.90
45066;DHT22;30830;53.704;10.004;2023-06-24T09:38:35;23.90;99.90
45066;DHT22;30830;53.704;10.004;2023-06-24T09:41:05;23.90;99.90
45066;DHT22;30830;53.704;10.004;2023-06-24T09:43:36;23.80;99.90
45066;DHT22;30830;53.704;10.004;2023-06-24T09:46:03;23.80;99.90
45066;DHT22;30830;53.704;10.004;2023-06-24T09:48:29;23.80;99.90
45066;DHT22;30830;53.704;10.004;2023-06-24T09:50:59;23.80;99.90
45066;DHT22;30830;53.704;10.004;2023-06-24T09:53:27;23.80;99.90
45066;DHT22;30830;53.704;10.004;2023-06-24T09:55:55;23.90;99.90
45066;DHT22;30830;53.704;10.004;2023-06-24T09:58:21;23.90;99.90
45066;DHT22;30830;53.704;10.004;2023-06-24T10:00:48;24.00;99.90
45066;DHT22;30830;53.704;10.004;2023-06-24T10:03:14;24.00;99.90
45066;DHT22;30830;53.704;10.004;2023-06-24T10:05:40;24.00;99.90
45066;DHT22;30830;53.704;10.004;2023-06-24T10:08:07;24.10;99.90
45066;DHT22;30830;53.704;10.004;2023-06-24T10:10:33;24.00;99.90
45066;DHT22;30830;53.704;10.004;2023-06-24T10:12:59;24.00;99.40
45066;DHT22;30830;53.704;10.004;2023-06-24T10:15:25;23.80;99.90
45066;DHT22;30830;53.704;10.004;2023-06-24T10:17:51;23.80;99.90
45066;DHT22;30830;53.704;10.004;2023-06-24T10:20:26;23.80;99.90
45066;DHT22;30830;53.704;10.004;2023-06-24T10:22:52;23.80;99.90
45066;DHT22;30830;53.704;10.004;2023-06-24T10:25:18;23.90;99.90
45066;DHT22;30830;53.704;10.004;2023-06-24T10:27:44;23.90;99.90
45066;DHT22;30830;53.704;10.004;2023-06-24T10:30:17;23.90;99.90
45066;DHT22;30830;53.704;10.004;2023-06-24T10:32:44;23.90;99.90
45066;DHT22;30830;53.704;10.004;2023-06-24T10:35:27;23.90;99.90
45066;DHT22;30830;53.704;10.004;2023-06-24T10:37:59;23.90;99.90
45066;DHT22;30830;53.704;10.004;2023-06-24T10:40:38;23.90;99.80
45066;DHT22;30830;53.704;10.004;2023-06-24T10:43:28;23.80;99.90
45066;DHT22;30830;53.704;10.004;2023-06-24T10:45:56;23.80;99.90
45066;DHT22;30830;53.704;10.004;2023-06-24T10:48:22;23.70;99.90
45066;DHT22;30830;53.704;10.004;2023-06-24T10:50:49;23.60;99.60
45066;DHT22;30830;53.704;10.004;2023-06-24T10:53:18;23.70;99.90
45066;DHT22;30830;53.704;10.004;2023-06-24T10:55:46;23.70;99.90
45066;DHT22;30830;53.704;10.004;2023-06-24T10:58:13;23.80;99.90
45066;DHT22;30830;53.704;10.004;2023-06-24T11:00:41;23.70;99.90
45066;DHT22;30830;53.704;10.004;2023-06-24T11:03:11;23.80;99.90
45066;DHT22;30830;53.704;10.004;2023-06-24T11:05:38;23.90;99.90
45066;DHT22;30830;53.704;10.004;2023-06-24T11:08:05;23.90;99.90
45066;DHT22;30830;53.704;10.004;2023-06-24T11:10:50;24.00;99.90
45066;DHT22;30830;53.704;10.004;2023-06-24T11:13:20;24.00;99.90
45066;DHT22;30830;53.704;10.004;2023-06-24T11:15:45;24.00;99.90
45066;DHT22;30830;53.704;10.004;2023-06-24T11:18:11;24.10;99.90
45066;DHT22;30830;53.704;10.004;2023-06-24T11:20:40;24.10;99.90
45066;DHT22;30830;53.704;10.004;2023-06-24T11:23:10;24.20;99.90
45066;DHT22;30830;53.704;10.004;2023-06-24T11:25:40;24.10;99.50
45066;DHT22;30830;53.704;10.004;2023-06-24T11:28:16;24.00;99.30
45066;DHT22;30830;53.704;10.004;2023-06-24T11:30:42;23.90;99.90
45066;DHT22;30830;53.704;10.004;2023-06-24T11:33:08;23.90;99.90
45066;DHT22;30830;53.704;10.004;2023-06-24T11:35:33;23.90;99.90
45066;DHT22;30830;53.704;10.004;2023-06-24T11:38:01;24.00;99.90
45066;DHT22;30830;53.704;10.004;2023-06-24T11:40:27;24.10;99.90
45066;DHT22;30830;53.704;10.004;2023-06-24T11:42:52;24.20;99.90
45066;DHT22;30830;53.704;10.004;2023-06-24T11:45:20;24.20;99.90
45066;DHT22;30830;53.704;10.004;2023-06-24T11:47:46;24.30;99.90
45066;DHT22;30830;53.704;10.004;2023-06-24T11:50:13;24.30;99.90
45066;DHT22;30830;53.704;10.004;2023-06-24T11:52:44;24.20;99.90
45066;DHT22;30830;53.704;10.004;2023-06-24T11:55:23;24.10;99.90
45066;DHT22;30830;53.704;10.004;2023-06-24T11:57:50;24.10;99.90
45066;DHT22;30830;53.704;10.004;2023-06-24T12:00:16;24.10;99.90
45066;DHT22;30830;53.704;10.004;2023-06-24T12:02:41;24.20;99.90
45066;DHT22;30830;53.704;10.004;2023-06-24T12:05:07;24.20;99.90
45066;DHT22;30830;53.704;10.004;2023-06-24T12:07:34;24.20;99.90
45066;DHT22;30830;53.704;10.004;2023-06-24T12:09:59;24.30;99.90
45066;DHT22;30830;53.704;10.004;2023-06-24T12:12:25;24.40;99.90
45066;DHT22;30830;53.704;10.004;2023-06-24T12:14:50;24.40;99.80
45066;DHT22;30830;53.704;10.004;2023-06-24T12:17:16;24.50;99.20
45066;DHT22;30830;53.704;10.004;2023-06-24T12:19:41;24.60;99.90
45066;DHT22;30830;53.704;10.004;2023-06-24T12:22:07;24.70;99.50
45066;DHT22;30830;53.704;10.004;2023-06-24T12:24:33;24.70;99.90
45066;DHT22;30830;53.704;10.004;2023-06-24T12:26:58;24.80;99.90
45066;DHT22;30830;53.704;10.004;2023-06-24T12:29:24;24.80;98.40
45066;DHT22;30830;53.704;10.004;2023-06-24T12:31:49;24.90;99.90
45066;DHT22;30830;53.704;10.004;2023-06-24T12:34:15;25.00;99.40
45066;DHT22;30830;53.704;10.004;2023-06-24T12:36:40;25.10;99.20
45066;DHT22;30830;53.704;10.004;2023-06-24T12:39:06;25.20;98.60
45066;DHT22;30830;53.704;10.004;2023-06-24T12:41:31;25.20;99.90
45066;DHT22;30830;53.704;10.004;2023-06-24T12:43:58;25.40;99.20
45066;DHT22;30830;53.704;10.004;2023-06-24T12:46:24;25.50;99.10
45066;DHT22;30830;53.704;10.004;2023-06-24T12:48:49;25.70;98.60
45066;DHT22;30830;53.704;10.004;2023-06-24T12:51:15;25.60;98.60
45066;DHT22;30830;53.704;10.004;2023-06-24T12:53:41;25.80;99.70
45066;DHT22;30830;53.704;10.004;2023-06-24T12:56:06;25.90;98.20
45066;DHT22;30830;53.704;10.004;2023-06-24T12:58:32;25.90;98.20
45066;DHT22;30830;53.704;10.004;2023-06-24T13:00:57;25.80;99.60
45066;DHT22;30830;53.704;10.004;2023-06-24T13:03:23;25.70;98.40
45066;DHT22;30830;53.704;10.004;2023-06-24T13:05:48;25.60;99.20
45066;DHT22;30830;53.704;10.004;2023-06-24T13:08:14;25.40;98.70
45066;DHT22;30830;53.704;10.004;2023-06-24T13:10:40;25.40;98.30
45066;DHT22;30830;53.704;10.004;2023-06-24T13:13:06;25.50;99.10
45066;DHT22;30830;53.704;10.004;2023-06-24T13:15:31;25.60;98.20
45066;DHT22;30830;53.704;10.004;2023-06-24T13:17:57;25.60;97.70
45066;DHT22;30830;53.704;10.004;2023-06-24T13:20:22;25.50;98.90
45066;DHT22;30830;53.704;10.004;2023-06-24T13:22:48;25.50;98.50
45066;DHT22;30830;53.704;10.004;2023-06-24T13:25:13;25.60;99.60
45066;DHT22;30830;53.704;10.004;2023-06-24T13:27:39;25.80;98.50
45066;DHT22;30830;53.704;10.004;2023-06-24T13:30:05;26.00;99.80
45066;DHT22;30830;53.704;10.004;2023-06-24T13:32:31;26.10;98.60
45066;DHT22;30830;53.704;10.004;2023-06-24T13:34:56;26.20;97.90
45066;DHT22;30830;53.704;10.004;2023-06-24T13:37:22;26.10;97.30
45066;DHT22;30830;53.704;10.004;2023-06-24T13:39:48;25.90;96.80
45066;DHT22;30830;53.704;10.004;2023-06-24T13:42:13;25.90;98.20
45066;DHT22;30830;53.704;10.004;2023-06-24T13:44:39;25.80;98.40
45066;DHT22;30830;53.704;10.004;2023-06-24T13:47:05;25.80;98.80
45066;DHT22;30830;53.704;10.004;2023-06-24T13:49:30;25.70;97.60
45066;DHT22;30830;53.704;10.004;2023-06-24T13:51:56;25.60;97.70
45066;DHT22;30830;53.704;10.004;2023-06-24T13:54:21;25.60;97.60
45066;DHT22;30830;53.704;10.004;2023-06-24T13:56:47;25.80;97.30
45066;DHT22;30830;53.704;10.004;2023-06-24T13:59:12;25.70;97.00
45066;DHT22;30830;53.704;10.004;2023-06-24T14:01:38;25.70;97.80
45066;DHT22;30830;53.704;10.004;2023-06-24T14:04:04;25.70;97.50
45066;DHT22;30830;53.704;10.004;2023-06-24T14:06:30;25.50;97.30
45066;DHT22;30830;53.704;10.004;2023-06-24T14:08:56;25.60;97.20
45066;DHT22;30830;53.704;10.004;2023-06-24T14:11:22;25.70;97.30
45066;DHT22;30830;53.704;10.004;2023-06-24T14:13:47;25.80;97.70
45066;DHT22;30830;53.704;10.004;2023-06-24T14:16:13;25.90;98.90
45066;DHT22;30830;53.704;10.004;2023-06-24T14:18:39;26.10;98.90
45066;DHT22;30830;53.704;10.004;2023-06-24T14:21:05;26.10;98.00
45066;DHT22;30830;53.704;10.004;2023-06-24T14:23:32;26.10;97.70
45066;DHT22;30830;53.704;10.004;2023-06-24T14:25:58;26.10;97.50
45066;DHT22;30830;53.704;10.004;2023-06-24T14:28:24;26.20;98.30
45066;DHT22;30830;53.704;10.004;2023-06-24T14:30:51;26.30;97.40
45066;DHT22;30830;53.704;10.004;2023-06-24T14:33:16;26.40;95.80
45066;DHT22;30830;53.704;10.004;2023-06-24T14:35:42;26.50;96.40
45066;DHT22;30830;53.704;10.004;2023-06-24T14:38:08;26.40;97.30
45066;DHT22;30830;53.704;10.004;2023-06-24T14:40:34;26.40;96.50
45066;DHT22;30830;53.704;10.004;2023-06-24T14:43:00;26.30;96.40
45066;DHT22;30830;53.704;10.004;2023-06-24T14:45:26;26.30;95.80
45066;DHT22;30830;53.704;10.004;2023-06-24T14:47:52;26.20;95.60
45066;DHT22;30830;53.704;10.004;2023-06-24T14:50:18;26.20;96.40
45066;DHT22;30830;53.704;10.004;2023-06-24T14:52:43;26.20;96.90
45066;DHT22;30830;53.704;10.004;2023-06-24T14:55:09;26.10;96.40
45066;DHT22;30830;53.704;10.004;2023-06-24T14:57:35;26.20;95.80
45066;DHT22;30830;53.704;10.004;2023-06-24T15:00:02;26.30;96.30
45066;DHT22;30830;53.704;10.004;2023-06-24T15:02:28;26.30;96.40
45066;DHT22;30830;53.704;10.004;2023-06-24T15:04:54;26.40;96.00
45066;DHT22;30830;53.704;10.004;2023-06-24T15:07:20;26.50;96.10
45066;DHT22;30830;53.704;10.004;2023-06-24T15:09:46;26.50;96.00
45066;DHT22;30830;53.704;10.004;2023-06-24T15:12:11;26.50;96.10
45066;DHT22;30830;53.704;10.004;2023-06-24T15:14:37;26.40;96.70
45066;DHT22;30830;53.704;10.004;2023-06-24T15:17:03;26.30;96.20
45066;DHT22;30830;53.704;10.004;2023-06-24T15:19:29;26.30;96.40
45066;DHT22;30830;53.704;10.004;2023-06-24T15:21:54;26.20;95.70